Airport View

Enter AWOS ICAO identifier for current METAR.

ex. KFNL

KMAW 262250Z AUTO 10SM BKN046 04/M03 A3021 RMK AO2 TSNO

26 Feb 2020 22:48

Frequency: 119.825

Phone: 573-276-9970

Other Area AWOS: KPOF - KTKX - KSIK - K4M9

TAF KCGI 261720Z 2618/2718 33014G22KT P6SM OVC022 FM262200 32014KT P6SM OVC035 FM270700 31006KT P6SM FEW250